createdAt,value
2023-01-30T00:01:21.938Z,19.27
2023-01-30T00:03:48.753Z,18.00
2023-01-30T00:06:15.946Z,17.70
2023-01-30T00:08:42.890Z,17.77
2023-01-30T00:11:12.537Z,18.13
2023-01-30T00:13:40.159Z,17.93
2023-01-30T00:16:09.661Z,16.70
2023-01-30T00:18:38.684Z,16.43
2023-01-30T00:21:07.963Z,17.20
2023-01-30T00:23:35.969Z,16.40
2023-01-30T00:26:03.700Z,15.30
2023-01-30T00:28:30.728Z,16.23
2023-01-30T00:30:57.656Z,15.37
2023-01-30T00:33:26.755Z,14.30
2023-01-30T00:35:54.833Z,16.17
2023-01-30T00:38:22.313Z,14.60
2023-01-30T00:40:49.328Z,14.23
2023-01-30T00:43:37.287Z,14.57
2023-01-30T00:46:47.242Z,14.10
2023-01-30T00:49:14.368Z,14.07
2023-01-30T00:51:41.233Z,12.97
2023-01-30T00:54:08.313Z,12.53
2023-01-30T00:56:35.069Z,11.30
2023-01-30T00:59:01.975Z,11.47
2023-01-30T01:01:28.975Z,11.70
2023-01-30T01:03:55.781Z,11.80
2023-01-30T01:06:22.668Z,11.33
2023-01-30T01:08:49.552Z,10.20
2023-01-30T01:11:24.573Z,10.67
2023-01-30T01:13:57.098Z,9.77
2023-01-30T01:16:24.929Z,9.23
2023-01-30T01:18:52.023Z,9.73
2023-01-30T01:21:20.372Z,8.90
2023-01-30T01:23:56.811Z,9.93
2023-01-30T01:26:23.898Z,9.07
2023-01-30T01:28:55.466Z,9.03
2023-01-30T01:31:24.143Z,9.73
2023-01-30T01:33:51.447Z,9.77
2023-01-30T01:36:42.459Z,10.43
2023-01-30T01:39:05.826Z,10.07
2023-01-30T01:41:32.664Z,9.53
2023-01-30T01:44:06.998Z,9.20
2023-01-30T01:46:38.811Z,9.13
2023-01-30T01:49:13.741Z,8.87
2023-01-30T01:51:59.657Z,9.63
2023-01-30T01:54:35.052Z,8.63
2023-01-30T01:57:05.466Z,8.53
2023-01-30T02:00:12.799Z,8.90
2023-01-30T02:02:55.099Z,8.60
2023-01-30T02:05:22.735Z,8.40
2023-01-30T02:07:54.142Z,7.03
2023-01-30T02:10:29.869Z,7.27
2023-01-30T02:12:56.604Z,7.67
2023-01-30T02:15:23.577Z,7.30
2023-01-30T02:17:50.364Z,8.37
2023-01-30T02:20:29.924Z,7.60
2023-01-30T02:23:27.802Z,7.83
2023-01-30T02:26:09.748Z,7.10
2023-01-30T02:28:59.657Z,7.27
2023-01-30T02:31:42.739Z,7.83
2023-01-30T02:34:30.349Z,7.50
2023-01-30T02:37:02.711Z,7.80
2023-01-30T02:39:56.939Z,8.40
2023-01-30T02:42:42.454Z,6.73
2023-01-30T02:45:37.012Z,8.40
2023-01-30T02:48:07.556Z,7.73
2023-01-30T02:50:49.314Z,7.83
2023-01-30T02:53:16.111Z,7.80
2023-01-30T02:55:43.205Z,7.27
2023-01-30T02:58:11.109Z,7.20
2023-01-30T03:00:56.479Z,7.50
2023-01-30T03:03:35.779Z,6.60
2023-01-30T03:06:52.199Z,6.33
2023-01-30T03:09:37.498Z,6.50
2023-01-30T03:12:13.795Z,6.13
2023-01-30T03:15:12.507Z,6.53
2023-01-30T03:17:42.440Z,5.73
2023-01-30T03:20:15.132Z,5.70
2023-01-30T03:22:41.949Z,5.87
2023-01-30T03:25:09.907Z,5.90
2023-01-30T03:27:38.285Z,6.33
2023-01-30T03:30:05.912Z,5.53
2023-01-30T03:32:32.764Z,5.80
2023-01-30T03:35:00.188Z,6.63
2023-01-30T03:37:27.625Z,5.57
2023-01-30T03:39:54.595Z,5.73
2023-01-30T03:42:21.851Z,5.93
2023-01-30T03:44:48.673Z,5.80
2023-01-30T03:47:15.508Z,5.30
2023-01-30T03:49:42.371Z,5.23
2023-01-30T03:52:09.237Z,5.80
2023-01-30T03:54:35.954Z,6.00
2023-01-30T03:57:03.612Z,5.90
2023-01-30T03:59:31.384Z,6.00
2023-01-30T04:02:05.229Z,5.00
2023-01-30T04:04:32.741Z,5.10
2023-01-30T04:07:00.640Z,5.43
2023-01-30T04:09:28.604Z,4.60
2023-01-30T04:11:55.892Z,5.13
2023-01-30T04:14:23.009Z,4.80
2023-01-30T04:17:08.328Z,4.97
2023-01-30T04:19:44.131Z,4.37
2023-01-30T04:22:10.980Z,4.03
2023-01-30T04:24:37.850Z,4.47
2023-01-30T04:27:04.765Z,4.30
2023-01-30T04:29:35.888Z,4.20
2023-01-30T04:32:05.076Z,4.60
2023-01-30T04:34:34.705Z,4.40
2023-01-30T04:37:01.863Z,4.23
2023-01-30T04:39:29.813Z,5.07
2023-01-30T04:41:56.852Z,4.10
2023-01-30T04:44:23.914Z,3.43
2023-01-30T04:47:07.934Z,3.93
2023-01-30T04:49:35.126Z,3.60
2023-01-30T04:52:03.701Z,3.50
2023-01-30T04:54:30.581Z,3.27
2023-01-30T04:56:57.691Z,3.63
2023-01-30T04:59:24.727Z,3.60
2023-01-30T05:01:52.899Z,2.97
2023-01-30T05:04:20.421Z,2.90
2023-01-30T05:06:47.210Z,3.50
2023-01-30T05:09:13.928Z,3.20
2023-01-30T05:11:40.695Z,3.13
2023-01-30T05:14:07.467Z,3.10
2023-01-30T05:16:34.281Z,2.83
2023-01-30T05:19:01.139Z,3.40
2023-01-30T05:21:28.682Z,2.83
2023-01-30T05:23:56.417Z,3.23
2023-01-30T05:26:24.191Z,3.43
2023-01-30T05:28:53.391Z,3.10
2023-01-30T05:31:20.533Z,3.23
2023-01-30T05:33:49.012Z,2.90
2023-01-30T05:36:18.080Z,3.97
2023-01-30T05:38:45.499Z,2.73
2023-01-30T05:41:13.980Z,3.03
2023-01-30T05:43:41.410Z,3.17
2023-01-30T05:46:10.817Z,2.57
2023-01-30T05:48:37.685Z,2.93
2023-01-30T05:51:04.559Z,2.83
2023-01-30T05:53:35.065Z,3.50
2023-01-30T05:56:04.405Z,2.87
2023-01-30T05:58:32.978Z,3.13
2023-01-30T06:01:04.555Z,2.67
2023-01-30T06:03:31.956Z,3.00
2023-01-30T06:05:58.931Z,2.40
2023-01-30T06:08:25.733Z,2.70
2023-01-30T06:10:52.484Z,2.97
2023-01-30T06:13:19.333Z,2.13
2023-01-30T06:15:46.505Z,2.60
2023-01-30T06:18:13.300Z,3.07
2023-01-30T06:20:40.029Z,2.47
2023-01-30T06:23:06.850Z,2.67
2023-01-30T06:25:33.657Z,2.60
2023-01-30T06:28:00.409Z,2.90
2023-01-30T06:30:27.240Z,2.60
2023-01-30T06:32:54.019Z,2.40
2023-01-30T06:35:21.086Z,2.80
2023-01-30T06:37:48.119Z,2.90
2023-01-30T06:40:15.022Z,3.10
2023-01-30T06:42:48.987Z,2.50
2023-01-30T06:45:17.679Z,2.53
2023-01-30T06:47:55.759Z,3.43
2023-01-30T06:50:25.279Z,3.77
2023-01-30T06:52:53.799Z,2.30
2023-01-30T06:55:23.362Z,2.93
2023-01-30T06:57:50.631Z,3.20
2023-01-30T07:00:19.754Z,3.57
2023-01-30T07:02:47.490Z,3.00
2023-01-30T07:05:14.399Z,2.80
2023-01-30T07:07:41.133Z,3.43
2023-01-30T07:10:09.163Z,2.80
2023-01-30T07:12:36.879Z,3.10
2023-01-30T07:15:06.599Z,3.80
2023-01-30T07:17:33.639Z,3.30
2023-01-30T07:20:00.636Z,3.23
2023-01-30T07:22:27.567Z,2.83
2023-01-30T07:24:54.341Z,3.47
2023-01-30T07:27:21.210Z,3.03
2023-01-30T07:29:47.984Z,2.70
2023-01-30T07:32:18.348Z,2.70
2023-01-30T07:34:45.440Z,3.07
2023-01-30T07:37:12.383Z,2.30
2023-01-30T07:39:39.315Z,2.80
2023-01-30T07:42:06.293Z,2.50
2023-01-30T07:44:34.209Z,2.93
2023-01-30T07:47:01.297Z,2.73
2023-01-30T07:49:28.111Z,2.70
2023-01-30T07:51:54.962Z,2.60
2023-01-30T07:54:22.011Z,3.23
2023-01-30T07:56:48.804Z,3.07
2023-01-30T07:59:15.567Z,2.80
2023-01-30T08:01:42.427Z,2.97
2023-01-30T08:04:09.207Z,3.23
2023-01-30T08:06:39.292Z,2.90
2023-01-30T08:09:06.943Z,2.50
2023-01-30T08:11:34.373Z,2.50
2023-01-30T08:14:01.102Z,2.57
2023-01-30T08:16:28.126Z,2.43
2023-01-30T08:18:54.958Z,3.03
2023-01-30T08:21:21.699Z,2.27
2023-01-30T08:23:48.517Z,3.77
2023-01-30T08:26:15.434Z,2.80
2023-01-30T08:28:42.532Z,3.17
2023-01-30T08:31:13.964Z,3.43
2023-01-30T08:33:40.851Z,3.97
2023-01-30T08:36:08.190Z,2.80
2023-01-30T08:38:34.999Z,3.00
2023-01-30T08:41:04.963Z,3.37
2023-01-30T08:43:31.764Z,2.80
2023-01-30T08:45:58.626Z,2.90
2023-01-30T08:48:25.428Z,3.13
2023-01-30T08:50:56.372Z,3.17
2023-01-30T08:53:23.753Z,3.07
2023-01-30T08:55:54.435Z,3.10
2023-01-30T08:58:21.980Z,2.60
2023-01-30T09:00:50.272Z,2.47
2023-01-30T09:03:17.981Z,2.80
2023-01-30T09:05:44.766Z,2.43
2023-01-30T09:08:11.792Z,3.30
2023-01-30T09:10:38.625Z,2.47
2023-01-30T09:13:05.549Z,2.63
2023-01-30T09:15:33.161Z,2.60
2023-01-30T09:17:59.990Z,2.87
2023-01-30T09:20:27.160Z,2.70
2023-01-30T09:22:53.976Z,3.50
2023-01-30T09:25:20.817Z,2.70
2023-01-30T09:27:50.903Z,4.20
2023-01-30T09:30:18.987Z,2.70
2023-01-30T09:32:46.365Z,3.53
2023-01-30T09:35:13.204Z,2.80
2023-01-30T09:37:48.163Z,2.87
2023-01-30T09:40:18.742Z,3.20
2023-01-30T09:43:04.733Z,2.47
2023-01-30T09:45:44.932Z,2.43
2023-01-30T09:48:37.056Z,3.47
2023-01-30T09:51:33.993Z,3.73
2023-01-30T09:54:22.083Z,2.33
2023-01-30T09:57:20.876Z,2.57
2023-01-30T09:59:55.235Z,2.37
2023-01-30T10:02:41.245Z,2.37
2023-01-30T10:05:08.943Z,2.20
2023-01-30T10:07:46.627Z,2.43
2023-01-30T10:10:35.334Z,2.43
2023-01-30T10:13:24.751Z,2.83
2023-01-30T10:16:01.744Z,2.40
2023-01-30T10:19:00.325Z,2.87
2023-01-30T10:21:31.816Z,2.53
2023-01-30T10:24:10.023Z,2.37
2023-01-30T10:26:39.775Z,3.30
2023-01-30T10:29:26.660Z,3.60
2023-01-30T10:31:55.913Z,2.57
2023-01-30T10:34:37.013Z,2.53
2023-01-30T10:37:24.889Z,2.63
2023-01-30T10:39:58.868Z,3.20
2023-01-30T10:43:04.482Z,2.37
2023-01-30T10:45:44.283Z,2.80
2023-01-30T10:48:44.151Z,3.83
2023-01-30T10:51:37.353Z,2.97
2023-01-30T10:54:18.601Z,2.57
2023-01-30T10:57:02.109Z,3.10
2023-01-30T10:59:43.111Z,2.43
2023-01-30T11:02:25.134Z,3.00
2023-01-30T11:04:51.889Z,2.80
2023-01-30T11:07:19.136Z,3.17
2023-01-30T11:09:47.621Z,2.83
2023-01-30T11:12:15.051Z,3.87
2023-01-30T11:14:58.659Z,2.70
2023-01-30T11:17:32.812Z,3.00
2023-01-30T11:20:06.369Z,2.87
2023-01-30T11:22:36.506Z,3.93
2023-01-30T11:25:24.149Z,3.07
2023-01-30T11:28:03.370Z,3.13
2023-01-30T11:30:34.788Z,3.23
2023-01-30T11:33:12.155Z,3.53
2023-01-30T11:35:51.372Z,2.90
2023-01-30T11:38:27.821Z,2.60
2023-01-30T11:41:05.903Z,3.17
2023-01-30T11:43:34.747Z,2.83
2023-01-30T11:46:02.454Z,3.23
2023-01-30T11:48:33.973Z,2.40
2023-01-30T11:51:20.591Z,2.90
2023-01-30T11:53:50.853Z,3.47
2023-01-30T11:56:32.725Z,2.70
2023-01-30T11:59:03.729Z,3.00
2023-01-30T12:01:34.195Z,2.50
2023-01-30T12:04:02.053Z,2.97
2023-01-30T12:06:35.128Z,3.13
2023-01-30T12:09:02.897Z,4.13
2023-01-30T12:11:42.473Z,3.83
2023-01-30T12:14:26.301Z,3.33
2023-01-30T12:17:02.506Z,2.10
2023-01-30T12:20:02.972Z,2.70
2023-01-30T12:22:56.002Z,3.07
2023-01-30T12:25:26.788Z,3.43
2023-01-30T12:28:12.753Z,2.93
2023-01-30T12:30:56.629Z,3.40
2023-01-30T12:33:29.077Z,2.50
2023-01-30T12:36:02.009Z,2.80
2023-01-30T12:38:56.143Z,2.97
2023-01-30T12:42:00.878Z,3.50
2023-01-30T12:44:36.488Z,3.23
2023-01-30T12:47:38.058Z,3.40
2023-01-30T12:50:23.509Z,2.77
2023-01-30T12:52:53.933Z,2.97
2023-01-30T12:55:39.651Z,2.87
2023-01-30T12:58:32.203Z,2.73
2023-01-30T13:01:25.165Z,3.23
2023-01-30T13:04:02.745Z,2.50
2023-01-30T13:06:54.600Z,2.80
2023-01-30T13:09:49.915Z,2.70
2023-01-30T13:12:31.535Z,3.43
2023-01-30T13:15:15.530Z,2.73
2023-01-30T13:18:15.443Z,2.60
2023-01-30T13:20:47.949Z,3.03
2023-01-30T13:23:27.481Z,2.50
2023-01-30T13:26:01.329Z,3.10
2023-01-30T13:28:34.879Z,2.67
2023-01-30T13:31:04.945Z,2.63
2023-01-30T13:33:39.948Z,2.87
2023-01-30T13:36:24.686Z,3.30
2023-01-30T13:39:05.954Z,3.50
2023-01-30T13:41:42.792Z,2.70
2023-01-30T13:44:31.550Z,2.77
2023-01-30T13:47:11.787Z,2.60
2023-01-30T13:49:49.048Z,3.13
2023-01-30T13:52:34.280Z,2.97
2023-01-30T13:55:16.908Z,2.47
2023-01-30T13:58:15.112Z,2.73
2023-01-30T14:00:53.114Z,2.83
2023-01-30T14:03:26.323Z,2.87
2023-01-30T14:06:04.916Z,2.93
2023-01-30T14:08:38.974Z,2.30
2023-01-30T14:11:33.962Z,2.63
2023-01-30T14:14:25.024Z,2.83
2023-01-30T14:16:58.221Z,2.33
2023-01-30T14:19:57.095Z,2.67
2023-01-30T14:22:51.169Z,2.73
2023-01-30T14:25:30.425Z,3.37
2023-01-30T14:28:00.195Z,2.43
2023-01-30T14:30:45.207Z,3.43
2023-01-30T14:33:33.947Z,3.00
2023-01-30T14:36:00.720Z,2.93
2023-01-30T14:38:38.395Z,2.63
2023-01-30T14:41:05.129Z,3.00
2023-01-30T14:43:42.927Z,2.90
2023-01-30T14:46:18.497Z,2.83
2023-01-30T14:48:49.989Z,3.47
2023-01-30T14:51:39.413Z,2.83
2023-01-30T14:54:12.615Z,2.80
2023-01-30T14:56:58.565Z,3.67
2023-01-30T14:59:54.086Z,3.03
2023-01-30T15:02:32.795Z,2.60
2023-01-30T15:05:10.119Z,2.30
2023-01-30T15:08:03.804Z,2.93
2023-01-30T15:10:30.565Z,2.73
2023-01-30T15:13:20.718Z,3.20
2023-01-30T15:15:50.244Z,3.00
2023-01-30T15:18:41.365Z,2.80
2023-01-30T15:21:23.158Z,2.50
2023-01-30T15:24:32.077Z,3.47
2023-01-30T15:27:32.907Z,3.03
2023-01-30T15:30:17.402Z,3.40
2023-01-30T15:32:45.078Z,2.70
2023-01-30T15:35:11.916Z,2.67
2023-01-30T15:37:41.269Z,2.77
2023-01-30T15:40:20.353Z,3.13
2023-01-30T15:42:50.532Z,4.30
2023-01-30T15:45:45.150Z,2.43
2023-01-30T15:48:30.159Z,3.53
2023-01-30T15:50:59.808Z,3.33
2023-01-30T15:53:41.031Z,2.70
2023-01-30T15:56:10.914Z,2.83
2023-01-30T15:58:41.035Z,2.93
2023-01-30T16:01:09.084Z,3.07
2023-01-30T16:03:42.575Z,3.33
2023-01-30T16:06:41.704Z,2.57
2023-01-30T16:09:23.161Z,4.77
2023-01-30T16:11:50.480Z,3.50
2023-01-30T16:14:19.482Z,4.00
2023-01-30T16:16:56.041Z,3.37
2023-01-30T16:19:31.120Z,3.57
2023-01-30T16:22:07.006Z,4.10
2023-01-30T16:24:36.770Z,2.93
2023-01-30T16:27:07.348Z,2.90
2023-01-30T16:29:53.135Z,3.20
2023-01-30T16:32:26.120Z,4.10
2023-01-30T16:35:28.164Z,5.30
2023-01-30T16:37:57.535Z,4.13
2023-01-30T16:40:27.411Z,4.33
2023-01-30T16:43:03.144Z,3.50
2023-01-30T16:45:53.858Z,3.30
2023-01-30T16:48:30.702Z,3.00
2023-01-30T16:51:00.568Z,3.67
2023-01-30T16:53:30.596Z,2.50
2023-01-30T16:55:58.989Z,2.97
2023-01-30T16:58:32.390Z,2.57
2023-01-30T17:01:05.122Z,2.87
2023-01-30T17:03:40.003Z,3.20
2023-01-30T17:06:21.312Z,2.60
2023-01-30T17:08:50.534Z,3.20
2023-01-30T17:11:36.627Z,3.33
2023-01-30T17:14:23.166Z,4.10
2023-01-30T17:17:19.700Z,2.60
2023-01-30T17:19:48.607Z,3.77
2023-01-30T17:22:24.345Z,3.70
2023-01-30T17:24:51.392Z,3.70
2023-01-30T17:27:18.170Z,3.20
2023-01-30T17:29:47.083Z,3.50
2023-01-30T17:32:15.958Z,5.13
2023-01-30T17:34:42.778Z,4.17
2023-01-30T17:37:21.140Z,4.10
2023-01-30T17:39:48.431Z,2.87
2023-01-30T17:42:21.894Z,3.70
2023-01-30T17:44:48.886Z,3.77
2023-01-30T17:47:15.879Z,4.17
2023-01-30T17:49:42.772Z,4.20
2023-01-30T17:52:11.360Z,4.00
2023-01-30T17:54:38.085Z,3.93
2023-01-30T17:57:06.782Z,4.03
2023-01-30T17:59:33.760Z,3.60
2023-01-30T18:02:00.690Z,2.83
2023-01-30T18:04:27.685Z,3.37
2023-01-30T18:07:03.449Z,2.37
2023-01-30T18:09:31.006Z,2.90
2023-01-30T18:11:58.019Z,3.13
2023-01-30T18:14:24.737Z,2.50
2023-01-30T18:16:51.571Z,3.67
2023-01-30T18:19:18.745Z,2.80
2023-01-30T18:21:45.712Z,5.00
2023-01-30T18:24:13.167Z,5.77
2023-01-30T18:26:40.556Z,3.53
2023-01-30T18:29:09.656Z,2.70
2023-01-30T18:31:37.445Z,2.90
2023-01-30T18:34:04.356Z,2.77
2023-01-30T18:36:34.441Z,2.60
2023-01-30T18:39:01.447Z,2.60
2023-01-30T18:41:29.112Z,2.53
2023-01-30T18:43:58.205Z,3.10
2023-01-30T18:46:26.089Z,3.00
2023-01-30T18:48:53.280Z,2.87
2023-01-30T18:51:22.794Z,3.50
2023-01-30T18:53:51.721Z,3.30
2023-01-30T18:56:21.880Z,3.53
2023-01-30T18:58:56.203Z,2.83
2023-01-30T19:01:28.498Z,3.60
2023-01-30T19:03:56.240Z,3.47
2023-01-30T19:06:23.383Z,2.57
2023-01-30T19:08:50.412Z,4.00
2023-01-30T19:11:38.412Z,3.20
2023-01-30T19:14:06.416Z,3.67
2023-01-30T19:16:34.682Z,6.70
2023-01-30T19:19:02.122Z,8.90
2023-01-30T19:21:29.219Z,5.97
2023-01-30T19:23:59.679Z,5.03
2023-01-30T19:26:28.645Z,7.20
2023-01-30T19:28:55.438Z,6.37
2023-01-30T19:31:22.644Z,3.90
2023-01-30T19:33:58.343Z,3.90
2023-01-30T19:36:27.893Z,4.13
2023-01-30T19:38:55.149Z,4.57
2023-01-30T19:41:24.874Z,4.80
2023-01-30T19:43:52.508Z,4.50
2023-01-30T19:46:19.890Z,6.43
2023-01-30T19:48:47.870Z,8.43
2023-01-30T19:51:20.532Z,6.93
2023-01-30T19:53:52.667Z,4.97
2023-01-30T19:56:21.767Z,4.67
2023-01-30T19:58:52.221Z,4.20
2023-01-30T20:01:21.461Z,4.60
2023-01-30T20:03:49.349Z,5.17
2023-01-30T20:06:18.413Z,6.00
2023-01-30T20:08:48.229Z,7.40
2023-01-30T20:11:17.769Z,5.00
2023-01-30T20:13:45.602Z,4.83
2023-01-30T20:16:19.608Z,5.67
2023-01-30T20:18:48.412Z,5.47
2023-01-30T20:21:17.917Z,5.77
2023-01-30T20:23:45.953Z,4.97
2023-01-30T20:26:20.761Z,3.57
2023-01-30T20:28:47.879Z,5.37
2023-01-30T20:31:19.829Z,5.23
2023-01-30T20:33:47.244Z,5.23
2023-01-30T20:36:18.607Z,5.93
2023-01-30T20:38:47.128Z,5.73
2023-01-30T20:41:16.840Z,5.60
2023-01-30T20:43:46.977Z,5.40
2023-01-30T20:46:16.238Z,5.63
2023-01-30T20:48:43.266Z,4.37
2023-01-30T20:51:15.327Z,3.50
2023-01-30T20:53:56.623Z,4.60
2023-01-30T20:56:25.581Z,5.07
2023-01-30T20:58:52.539Z,3.97
2023-01-30T21:01:21.775Z,6.23
2023-01-30T21:03:50.835Z,8.60
2023-01-30T21:06:41.309Z,5.73
2023-01-30T21:09:08.905Z,6.20
2023-01-30T21:11:35.923Z,14.80
2023-01-30T21:14:03.176Z,10.37
2023-01-30T21:16:32.479Z,7.17
2023-01-30T21:19:03.269Z,23.87
2023-01-30T21:21:33.743Z,19.30
2023-01-30T21:24:03.612Z,12.27
2023-01-30T21:26:32.122Z,10.03
2023-01-30T21:29:01.131Z,8.23
2023-01-30T21:31:30.767Z,5.63
2023-01-30T21:33:58.940Z,11.37
2023-01-30T21:36:27.214Z,6.13
2023-01-30T21:39:12.994Z,6.43
2023-01-30T21:41:51.001Z,8.20
2023-01-30T21:44:24.988Z,8.70
2023-01-30T21:46:52.069Z,6.80
2023-01-30T21:49:19.531Z,4.47
2023-01-30T21:51:48.583Z,4.10
2023-01-30T21:54:17.393Z,3.43
2023-01-30T21:56:44.728Z,4.03
2023-01-30T21:59:12.218Z,2.90
2023-01-30T22:01:40.079Z,3.60
2023-01-30T22:04:13.896Z,4.80
2023-01-30T22:06:41.383Z,4.57
2023-01-30T22:09:08.571Z,3.83
2023-01-30T22:11:37.679Z,3.93
2023-01-30T22:14:04.731Z,4.07
2023-01-30T22:16:33.539Z,2.77
2023-01-30T22:19:04.075Z,4.07
2023-01-30T22:21:34.992Z,4.30
2023-01-30T22:24:02.857Z,3.00
2023-01-30T22:26:29.616Z,3.63
2023-01-30T22:28:58.777Z,3.53
2023-01-30T22:31:28.475Z,3.17
2023-01-30T22:33:56.455Z,3.70
2023-01-30T22:36:25.414Z,4.03
2023-01-30T22:38:53.053Z,3.97
2023-01-30T22:41:22.385Z,3.93
2023-01-30T22:43:55.356Z,3.57
2023-01-30T22:46:25.730Z,3.33
2023-01-30T22:48:53.270Z,3.57
2023-01-30T22:51:21.231Z,2.97
2023-01-30T22:53:59.119Z,3.87
2023-01-30T22:56:28.628Z,2.97
2023-01-30T22:58:55.996Z,2.90
2023-01-30T23:01:30.591Z,2.90
2023-01-30T23:04:03.404Z,3.23
2023-01-30T23:06:31.408Z,3.50
2023-01-30T23:08:59.994Z,2.90
2023-01-30T23:11:28.562Z,2.73
2023-01-30T23:13:57.987Z,2.90
2023-01-30T23:16:27.389Z,2.73
2023-01-30T23:18:58.211Z,3.00
2023-01-30T23:21:54.273Z,2.70
2023-01-30T23:24:21.556Z,3.13
2023-01-30T23:26:51.273Z,2.80
2023-01-30T23:29:20.442Z,3.07
2023-01-30T23:31:47.856Z,2.57
2023-01-30T23:34:19.217Z,3.50
2023-01-30T23:36:46.616Z,3.13
2023-01-30T23:39:14.624Z,3.87
2023-01-30T23:41:42.371Z,5.93
2023-01-30T23:44:09.817Z,19.33
2023-01-30T23:46:41.692Z,28.70
2023-01-30T23:49:12.116Z,21.70
2023-01-30T23:51:41.122Z,11.50
2023-01-30T23:54:08.525Z,11.67
2023-01-30T23:56:37.642Z,7.97
2023-01-30T23:59:05.776Z,8.30
